N.dadayli — TCCW7 — position and weather

sailwx.info

Track history (hours):
 
Tides and Currents Weather Stations Pressure Air Temp Water Temp Dewpoint Dewpoint Depression Visibility Wind Speed Wind Dir Waves Ship Positions

N.dadayli

Last reported at 2016-Jul-30 04:27 UTC. Time now 2016-Jul-30 07:22 UTC.
Position N 39°60' E 025°58'.

Length 101 m; draft 4.7 m.

Type: Cargo ship. MMSI: 271000768.

Date/timePositionNaut miles runAvg speedWind from/ knotsBaromVisibWave heightAir tempDewpointWater temp
2016-Jul-30 04:27N 39°60' E 025°58'13812.3
2016-Jul-29 17:19N 40°51' E 028°46'911.4
2016-Jul-29 16:32N 40°58' E 028°54'0 0.1
2016-Jul-29 12:30N 40°58' E 028°54'0 0.0
2016-Jul-29 07:28N 40°58' E 028°54'1 0.1
2016-Jul-28 20:32N 40°57' E 028°55'7 7.4
2016-Jul-28 19:34N 40°51' E 029°00'26 5.9
2016-Jul-28 15:12N 40°25' E 029°04'1 0.1
2016-Jul-27 23:21N 40°25' E 029°05'  
2016-Jul-25 18:06N 40°26' E 029°05'140 6.7
2016-Jul-24 21:22N 39°60' E 026°06'117 7.7
2016-Jul-24 06:07N 38°17' E 024°51'6 8.0
2016-Jul-24 05:25N 38°12' E 024°48'14 7.4
2016-Jul-24 03:30N 37°60' E 024°40'7 7.1
2016-Jul-24 02:33N 37°54' E 024°34'8 7.6
2016-Jul-24 01:34N 37°50' E 024°27'8 8.4
2016-Jul-24 00:33N 37°44' E 024°18'11 9.0
2016-Jul-23 23:21N 37°38' E 024°07'7 8.9
2016-Jul-23 22:33N 37°37' E 023°58'9 8.7
2016-Jul-23 21:34N 37°39' E 023°48'8 8.2
2016-Jul-23 20:33N 37°44' E 023°40'7 7.2
2016-Jul-23 19:34N 37°50' E 023°34'8 8.2
2016-Jul-23 18:34N 37°51' E 023°23'8 8.0
2016-Jul-23 17:33N 37°52' E 023°13'8 7.8
2016-Jul-23 16:33N 37°54' E 023°04'14 4.0
2016-Jul-23 13:03N 38°05' E 022°53'4 8.3
2016-Jul-23 12:33N 38°08' E 022°57'3 0.6
2016-Jul-23 07:31N 38°11' E 022°59'5 4.2
2016-Jul-23 06:17N 38°08' E 022°53'1 0.5
2016-Jul-23 04:33N 38°08' E 022°54'2 2.1
2016-Jul-23 03:33N 38°10' E 022°56'6 5.6
2016-Jul-23 02:33N 38°10' E 022°49'3 3.2
2016-Jul-23 01:33N 38°12' E 022°45'1 0.6
2016-Jul-23 00:32N 38°12' E 022°44'1 0.6
2016-Jul-22 23:29N 38°12' E 022°44'1 0.4
2016-Jul-22 22:16N 38°12' E 022°43'326 8.7
2016-Jul-21 08:33N 37°53' E 015°49'8 8.1
2016-Jul-21 07:33N 37°56' E 015°40'9 9.3
2016-Jul-21 06:33N 38°04' E 015°34'9 8.8
2016-Jul-21 05:33N 38°13' E 015°36'7 6.8
2016-Jul-21 04:34N 38°19' E 015°40'10 9.9
2016-Jul-21 03:33N 38°26' E 015°31'10 9.8
2016-Jul-21 02:33N 38°32' E 015°21'10 9.7
2016-Jul-21 01:33N 38°39' E 015°12'9 9.2
2016-Jul-21 00:33N 38°44' E 015°02'11 9.2
2016-Jul-20 23:22N 38°50' E 014°51'36 9.3
2016-Jul-20 19:32N 39°08' E 014°11'10 9.3
2016-Jul-20 18:26N 39°14' E 014°00'8 9.3
2016-Jul-20 17:33N 39°18' E 013°51'9 9.2
2016-Jul-20 16:33N 39°23' E 013°41'11 9.2
2016-Jul-20 15:24N 39°28' E 013°29'8 9.2
2016-Jul-20 14:34N 39°32' E 013°21'9 9.3
2016-Jul-20 13:33N 39°37' E 013°10'10 9.6
2016-Jul-20 12:33N 39°42' E 012°60'1010.1
2016-Jul-20 11:33N 39°47' E 012°48'1010.1
2016-Jul-20 10:33N 39°52' E 012°37'1010.1
2016-Jul-20 09:34N 39°58' E 012°26'3210.2
2016-Jul-20 06:27N 40°14' E 011°50'  
Track history (hours):
 
Tides and Currents Weather Stations Pressure Air Temp Water Temp Dewpoint Dewpoint Depression Visibility Wind Speed Wind Dir Waves Ship Positions

N.dadayli

Last reported at 2016-Jul-30 04:27 UTC. Time now 2016-Jul-30 07:22 UTC.
Position N 39°60' E 025°58'.

Length 101 m; draft 4.7 m.

Type: Cargo ship. MMSI: 271000768.

Date/timePositionNaut miles runAvg speedWind from/ knotsBaromVisibWave heightAir tempDewpointWater temp
2016-Jul-30 04:27N 39°60' E 025°58'13812.3
2016-Jul-29 17:19N 40°51' E 028°46'911.4
2016-Jul-29 16:32N 40°58' E 028°54'0 0.1
2016-Jul-29 12:30N 40°58' E 028°54'0 0.0
2016-Jul-29 07:28N 40°58' E 028°54'1 0.1
2016-Jul-28 20:32N 40°57' E 028°55'7 7.4
2016-Jul-28 19:34N 40°51' E 029°00'26 5.9
2016-Jul-28 15:12N 40°25' E 029°04'1 0.1
2016-Jul-27 23:21N 40°25' E 029°05'  
2016-Jul-25 18:06N 40°26' E 029°05'140 6.7
2016-Jul-24 21:22N 39°60' E 026°06'117 7.7
2016-Jul-24 06:07N 38°17' E 024°51'6 8.0
2016-Jul-24 05:25N 38°12' E 024°48'14 7.4
2016-Jul-24 03:30N 37°60' E 024°40'7 7.1
2016-Jul-24 02:33N 37°54' E 024°34'8 7.6
2016-Jul-24 01:34N 37°50' E 024°27'8 8.4
2016-Jul-24 00:33N 37°44' E 024°18'11 9.0
2016-Jul-23 23:21N 37°38' E 024°07'7 8.9
2016-Jul-23 22:33N 37°37' E 023°58'9 8.7
2016-Jul-23 21:34N 37°39' E 023°48'8 8.2
2016-Jul-23 20:33N 37°44' E 023°40'7 7.2
2016-Jul-23 19:34N 37°50' E 023°34'8 8.2
2016-Jul-23 18:34N 37°51' E 023°23'8 8.0
2016-Jul-23 17:33N 37°52' E 023°13'8 7.8
2016-Jul-23 16:33N 37°54' E 023°04'14 4.0
2016-Jul-23 13:03N 38°05' E 022°53'4 8.3
2016-Jul-23 12:33N 38°08' E 022°57'3 0.6
2016-Jul-23 07:31N 38°11' E 022°59'5 4.2
2016-Jul-23 06:17N 38°08' E 022°53'1 0.5
2016-Jul-23 04:33N 38°08' E 022°54'2 2.1
2016-Jul-23 03:33N 38°10' E 022°56'6 5.6
2016-Jul-23 02:33N 38°10' E 022°49'3 3.2
2016-Jul-23 01:33N 38°12' E 022°45'1 0.6
2016-Jul-23 00:32N 38°12' E 022°44'1 0.6
2016-Jul-22 23:29N 38°12' E 022°44'1 0.4
2016-Jul-22 22:16N 38°12' E 022°43'326 8.7
2016-Jul-21 08:33N 37°53' E 015°49'8 8.1
2016-Jul-21 07:33N 37°56' E 015°40'9 9.3
2016-Jul-21 06:33N 38°04' E 015°34'9 8.8
2016-Jul-21 05:33N 38°13' E 015°36'7 6.8
2016-Jul-21 04:34N 38°19' E 015°40'10 9.9
2016-Jul-21 03:33N 38°26' E 015°31'10 9.8
2016-Jul-21 02:33N 38°32' E 015°21'10 9.7
2016-Jul-21 01:33N 38°39' E 015°12'9 9.2
2016-Jul-21 00:33N 38°44' E 015°02'11 9.2
2016-Jul-20 23:22N 38°50' E 014°51'36 9.3
2016-Jul-20 19:32N 39°08' E 014°11'10 9.3
2016-Jul-20 18:26N 39°14' E 014°00'8 9.3
2016-Jul-20 17:33N 39°18' E 013°51'9 9.2
2016-Jul-20 16:33N 39°23' E 013°41'11 9.2
2016-Jul-20 15:24N 39°28' E 013°29'8 9.2
2016-Jul-20 14:34N 39°32' E 013°21'9 9.3
2016-Jul-20 13:33N 39°37' E 013°10'10 9.6
2016-Jul-20 12:33N 39°42' E 012°60'1010.1
2016-Jul-20 11:33N 39°47' E 012°48'1010.1
2016-Jul-20 10:33N 39°52' E 012°37'1010.1
2016-Jul-20 09:34N 39°58' E 012°26'3210.2
2016-Jul-20 06:27N 40°14' E 011°50'  

Dump ship's entire track history